メインページ
METAR-TAF:

METAR-TAF

空港 :

ウェリントン国際空港

ウェリントン, ニュージーランド

緯度: 41-20S, 経度: 174-48E, 海抜: 12m

現時点の気象観測

当レポートは26分前の21:00(UTC)に作成
の風 17kt
気温 17°C
湿度 68%
気圧 1025 hPa
視程10km以上

METAR: NZWN 202100Z AUTO 36017KT 9999 SCT023/// 17/11 Q1025 NOSIG

時間: 10:26 (21:26 UTC)

予報

当レポートは4時間20分前の17:06(UTC)に作成
予報は20日の 18時(UTC)から 21日の 18時(UTC)まで有効
の風 20kt、最大30ktの突風を伴う
視程10km以上
高度2000ftの千切れ雲あり
20日の 2200時(UTC)から
の風 12kt
視程10km以上
高度2000ftの雲はほとんどない

TAF: NZWN 201706Z 2018/2118 35020G30KT 9999 BKN020 FM202200 35012KT 9999 FEW020

4,000以上の空港の気象観測と天気予報(METAR報とTAF報)

利用可能な観測所は地図上に黄色い丸と赤い丸で示す。

丸の上にカーソルを重ねると観測所名を参照できる。

次にクリックすると気象観測と天気予報を参照できる。

マップの切り替え:黒色「×」印の緑ボタンをクリックして拡大、「-」印の緑ボタンをクリックして縮小、緑色の三角印をクリックして隣りの地図に切り替え


METAR-TAF: